Sand Springs, Montana
Current Conditions -  °F | °C
As of 11:35 AM on Thursday 27 Nov 2014 (Local Time) from KMVH Reporting Station
Clear Clear  
Wind Chill: 52°   Ceiling: Unl
Heat Index: 52°   Visibility: 10mi
Dew Point: 30°   Wind: 21mph
Humidity: 44%   Direction: 290°WNW
Pressure: 29.81"   Gusts: 32mph
Location:  47.1°N, 107.49°W
Report Text: KMVH 271835Z AUTO 29018G28KT 10SM CLR 11/M01 A2981 RMK A01
Loading
Personal Weather Stations






























Interactive Weather Map New forecast layout! Learn more

10-Day Weather Forecast

Advertisements
Track Severe Weather on mobile